createdAt,value
2019-04-16T00:00:42.731Z,99.90
2019-04-16T00:03:12.062Z,99.90
2019-04-16T00:05:49.161Z,99.90
2019-04-16T00:08:27.609Z,99.90
2019-04-16T00:11:07.138Z,99.90
2019-04-16T00:13:38.155Z,99.90
2019-04-16T00:16:07.603Z,99.90
2019-04-16T00:18:36.984Z,99.90
2019-04-16T00:21:16.961Z,99.90
2019-04-16T00:23:56.722Z,99.90
2019-04-16T00:26:26.772Z,99.90
2019-04-16T00:29:01.643Z,99.90
2019-04-16T00:31:28.112Z,99.90
2019-04-16T00:33:57.819Z,99.90
2019-04-16T00:36:27.270Z,99.90
2019-04-16T00:38:56.650Z,99.90
2019-04-16T00:41:26.018Z,99.90
2019-04-16T00:43:55.572Z,99.90
2019-04-16T00:46:24.962Z,99.90
2019-04-16T00:48:54.362Z,99.90
2019-04-16T00:51:23.760Z,99.90
2019-04-16T00:53:53.146Z,99.90
2019-04-16T00:56:24.225Z,99.90
2019-04-16T00:58:53.679Z,99.90
2019-04-16T01:01:23.118Z,99.90
2019-04-16T01:03:52.495Z,99.90
2019-04-16T01:06:21.886Z,99.90
2019-04-16T01:08:54.858Z,99.90
2019-04-16T01:11:22.341Z,99.90
2019-04-16T01:13:53.209Z,99.90
2019-04-16T01:16:22.994Z,99.90
2019-04-16T01:18:52.347Z,99.90
2019-04-16T01:21:21.727Z,99.90
2019-04-16T01:23:51.103Z,99.90
2019-04-16T01:26:20.486Z,99.90
2019-04-16T01:28:51.486Z,99.90
2019-04-16T01:31:22.507Z,99.90
2019-04-16T01:34:02.197Z,99.90
2019-04-16T01:36:33.213Z,99.90
2019-04-16T01:39:15.802Z,99.90
2019-04-16T01:41:35.357Z,99.90
2019-04-16T01:44:04.796Z,99.90
2019-04-16T01:46:34.152Z,99.90
2019-04-16T01:49:03.543Z,99.90
2019-04-16T01:51:32.921Z,99.90
2019-04-16T01:54:02.559Z,99.90
2019-04-16T01:56:31.961Z,99.90
2019-04-16T01:59:04.594Z,99.90
2019-04-16T02:01:32.475Z,99.90
2019-04-16T02:04:01.849Z,99.90
2019-04-16T02:06:31.133Z,99.90
2019-04-16T02:09:02.952Z,99.90
2019-04-16T02:11:31.586Z,99.90
2019-04-16T02:14:00.970Z,99.90
2019-04-16T02:16:30.350Z,99.90
2019-04-16T02:19:01.352Z,99.90
2019-04-16T02:21:30.738Z,99.90
2019-04-16T02:24:00.106Z,99.90
2019-04-16T02:26:29.488Z,99.90
2019-04-16T02:28:59.515Z,99.90
2019-04-16T02:31:29.020Z,99.90
2019-04-16T02:33:58.308Z,99.90
2019-04-16T02:36:27.700Z,99.90
2019-04-16T02:38:57.062Z,99.90
2019-04-16T02:41:26.431Z,99.90
2019-04-16T02:43:55.824Z,99.90
2019-04-16T02:46:30.931Z,99.90
2019-04-16T02:48:56.271Z,99.90
2019-04-16T02:51:27.276Z,99.90
2019-04-16T02:54:06.003Z,99.90
2019-04-16T02:56:53.311Z,99.90
2019-04-16T02:59:24.575Z,99.90
2019-04-16T03:02:01.446Z,99.90
2019-04-16T03:04:32.460Z,99.90
2019-04-16T03:07:03.293Z,99.90
2019-04-16T03:09:33.059Z,99.90
2019-04-16T03:12:02.426Z,99.90
2019-04-16T03:14:31.792Z,99.90
2019-04-16T03:17:20.967Z,99.90
2019-04-16T03:19:52.144Z,99.90
2019-04-16T03:22:21.541Z,99.90
2019-04-16T03:24:50.921Z,99.90
2019-04-16T03:27:22.236Z,99.90
2019-04-16T03:29:52.316Z,99.90
2019-04-16T03:32:21.788Z,99.90
2019-04-16T03:34:53.393Z,99.90
2019-04-16T03:37:22.309Z,99.90
2019-04-16T03:39:51.669Z,99.90
2019-04-16T03:42:21.115Z,99.90
2019-04-16T03:44:50.499Z,99.90
2019-04-16T03:47:20.066Z,99.90
2019-04-16T03:49:49.537Z,99.90
2019-04-16T03:52:18.911Z,99.90
2019-04-16T03:54:48.301Z,99.90
2019-04-16T03:57:17.666Z,99.90
2019-04-16T03:59:47.048Z,99.90
2019-04-16T04:02:22.018Z,99.90
2019-04-16T04:04:47.554Z,99.90
2019-04-16T04:07:16.938Z,99.90
2019-04-16T04:09:46.254Z,99.90
2019-04-16T04:12:15.605Z,99.90
2019-04-16T04:14:44.999Z,99.90
2019-04-16T04:17:14.363Z,99.90
2019-04-16T04:19:46.278Z,99.90
2019-04-16T04:22:14.726Z,99.90
2019-04-16T04:24:44.098Z,99.90
2019-04-16T04:27:18.238Z,99.90
2019-04-16T04:29:46.253Z,99.90
2019-04-16T04:32:15.716Z,99.90
2019-04-16T04:34:45.512Z,99.90
2019-04-16T04:37:16.162Z,99.90
2019-04-16T04:39:45.533Z,99.90
2019-04-16T04:42:17.001Z,99.90
2019-04-16T04:44:47.137Z,99.90
2019-04-16T04:47:19.388Z,99.90
2019-04-16T04:49:47.723Z,99.90
2019-04-16T04:52:17.110Z,99.90
2019-04-16T04:54:48.108Z,99.90
2019-04-16T04:57:17.500Z,99.90
2019-04-16T04:59:46.902Z,99.90
2019-04-16T05:02:16.268Z,99.90
2019-04-16T05:04:56.277Z,99.90
2019-04-16T05:07:28.437Z,99.90
2019-04-16T05:09:56.795Z,99.90
2019-04-16T05:12:26.174Z,99.90
2019-04-16T05:14:58.396Z,99.90
2019-04-16T05:17:28.252Z,99.90
2019-04-16T05:19:57.633Z,99.90
2019-04-16T05:22:27.005Z,99.90
2019-04-16T05:25:01.093Z,99.90
2019-04-16T05:27:32.220Z,99.90
2019-04-16T05:30:01.719Z,99.90
2019-04-16T05:32:33.850Z,99.90
2019-04-16T05:35:02.229Z,99.90
2019-04-16T05:37:31.740Z,99.90
2019-04-16T05:40:01.794Z,99.90
2019-04-16T05:42:31.201Z,99.90
2019-04-16T05:45:02.485Z,99.90
2019-04-16T05:47:31.747Z,99.90
2019-04-16T05:50:01.242Z,99.90
2019-04-16T05:52:32.288Z,99.90
2019-04-16T05:55:16.843Z,99.90
2019-04-16T05:57:45.048Z,99.90
2019-04-16T06:00:19.092Z,99.90
2019-04-16T06:02:50.460Z,99.90
2019-04-16T06:05:19.641Z,99.90
2019-04-16T06:07:49.075Z,99.90
2019-04-16T06:10:19.174Z,99.90
2019-04-16T06:12:53.680Z,99.90
2019-04-16T06:15:27.406Z,99.90
2019-04-16T06:17:58.427Z,99.90
2019-04-16T06:20:29.451Z,99.90
2019-04-16T06:23:03.212Z,99.90
2019-04-16T06:25:40.966Z,99.90
2019-04-16T06:28:25.809Z,99.90
2019-04-16T06:30:56.816Z,99.90
2019-04-16T06:33:33.394Z,99.90
2019-04-16T06:36:20.457Z,99.90
2019-04-16T06:39:03.301Z,99.90
2019-04-16T06:41:41.823Z,99.90
2019-04-16T06:44:12.450Z,99.90
2019-04-16T06:46:49.504Z,99.90
2019-04-16T06:49:26.556Z,99.90
2019-04-16T06:52:06.413Z,99.90
2019-04-16T06:54:40.385Z,99.90
2019-04-16T06:57:28.032Z,99.90
2019-04-16T07:00:15.257Z,99.90
2019-04-16T07:03:02.158Z,99.90
2019-04-16T07:05:36.374Z,99.90
2019-04-16T07:08:36.528Z,99.90
2019-04-16T07:10:56.299Z,99.90
2019-04-16T07:13:25.690Z,99.90
2019-04-16T07:15:56.944Z,99.90
2019-04-16T07:18:26.174Z,99.90
2019-04-16T07:20:55.561Z,99.90
2019-04-16T07:23:25.940Z,99.90
2019-04-16T07:25:55.649Z,99.90
2019-04-16T07:28:30.969Z,99.90
2019-04-16T07:31:16.596Z,99.90
2019-04-16T07:34:00.034Z,99.90
2019-04-16T07:36:49.024Z,99.90
2019-04-16T07:39:37.267Z,99.90
2019-04-16T07:41:52.777Z,99.90
2019-04-16T07:44:23.867Z,99.00
2019-04-16T07:47:12.277Z,98.80
2019-04-16T07:49:45.311Z,99.10
2019-04-16T07:52:27.872Z,98.80
2019-04-16T07:55:01.640Z,97.80
2019-04-16T07:57:31.124Z,95.60
2019-04-16T08:00:08.203Z,95.00
2019-04-16T08:02:36.165Z,94.80
2019-04-16T08:05:08.673Z,95.40
2019-04-16T08:07:38.243Z,94.70
2019-04-16T08:10:08.646Z,94.50
2019-04-16T08:12:42.074Z,94.10
2019-04-16T08:15:14.803Z,94.10
2019-04-16T08:17:42.113Z,93.90
2019-04-16T08:20:11.613Z,93.80
2019-04-16T08:22:41.041Z,92.60
2019-04-16T08:25:10.471Z,92.10
2019-04-16T08:27:39.919Z,92.10
2019-04-16T08:30:12.200Z,91.70
2019-04-16T08:32:56.593Z,91.50
2019-04-16T08:35:26.364Z,91.10
2019-04-16T08:37:58.921Z,91.70
2019-04-16T08:40:28.461Z,91.10
2019-04-16T08:42:59.517Z,90.80
2019-04-16T08:45:28.921Z,91.00
2019-04-16T08:47:58.300Z,91.10
2019-04-16T08:50:27.662Z,91.00
2019-04-16T08:52:57.073Z,91.30
2019-04-16T08:55:26.447Z,91.10
2019-04-16T08:57:55.969Z,90.90
2019-04-16T09:00:25.596Z,91.00
2019-04-16T09:02:57.824Z,90.80
2019-04-16T09:05:26.158Z,90.50
2019-04-16T09:08:10.963Z,90.20
2019-04-16T09:10:30.906Z,88.30
2019-04-16T09:13:05.012Z,86.40
2019-04-16T09:15:36.418Z,86.50
2019-04-16T09:18:10.423Z,85.80
2019-04-16T09:20:40.691Z,85.40
2019-04-16T09:23:10.071Z,84.50
2019-04-16T09:25:42.525Z,82.00
2019-04-16T09:28:25.240Z,82.00
2019-04-16T09:31:02.716Z,82.20
2019-04-16T09:33:39.532Z,82.00
2019-04-16T09:36:13.725Z,78.90
2019-04-16T09:38:53.478Z,78.80
2019-04-16T09:41:24.499Z,77.80
2019-04-16T09:43:58.311Z,77.30
2019-04-16T09:46:49.959Z,76.10
2019-04-16T09:48:59.097Z,74.30
2019-04-16T09:51:28.612Z,73.70
2019-04-16T09:53:57.903Z,73.70
2019-04-16T09:56:29.899Z,72.80
2019-04-16T09:59:02.254Z,72.20
2019-04-16T10:01:33.522Z,72.10
2019-04-16T10:04:03.502Z,71.10
2019-04-16T10:06:32.918Z,71.30
2019-04-16T10:09:02.211Z,71.10
2019-04-16T10:11:35.879Z,70.20
2019-04-16T10:14:06.016Z,69.90
2019-04-16T10:16:35.556Z,68.40
2019-04-16T10:19:10.304Z,69.30
2019-04-16T10:21:39.760Z,69.30
2019-04-16T10:24:28.980Z,71.00
2019-04-16T10:26:59.950Z,70.00
2019-04-16T10:29:29.964Z,71.40
2019-04-16T10:31:59.483Z,71.20
2019-04-16T10:34:28.957Z,70.60
2019-04-16T10:36:58.394Z,70.80
2019-04-16T10:39:32.277Z,69.40
2019-04-16T10:42:03.270Z,69.50
2019-04-16T10:44:45.785Z,68.70
2019-04-16T10:47:22.568Z,67.70
2019-04-16T10:49:59.164Z,68.10
2019-04-16T10:52:46.124Z,68.10
2019-04-16T10:55:19.660Z,67.70
2019-04-16T10:58:06.794Z,66.90
2019-04-16T11:00:37.976Z,66.40
2019-04-16T11:03:09.056Z,66.30
2019-04-16T11:05:40.171Z,66.40
2019-04-16T11:08:10.500Z,66.30
2019-04-16T11:10:40.061Z,64.60
2019-04-16T11:13:11.147Z,59.80
2019-04-16T11:15:42.268Z,54.50
2019-04-16T11:18:12.824Z,50.10
2019-04-16T11:20:42.350Z,47.20
2019-04-16T11:23:11.972Z,45.50
2019-04-16T11:25:41.447Z,43.30
2019-04-16T11:28:13.774Z,43.00
2019-04-16T11:30:43.695Z,42.00
2019-04-16T11:33:13.178Z,41.60
2019-04-16T11:35:43.144Z,40.20
2019-04-16T11:38:13.346Z,40.00
2019-04-16T11:40:44.317Z,39.70
2019-04-16T11:43:15.997Z,39.40
2019-04-16T11:45:46.055Z,39.00
2019-04-16T11:48:16.124Z,39.00
2019-04-16T11:50:45.570Z,38.40
2019-04-16T11:53:14.958Z,38.50
2019-04-16T11:55:44.389Z,37.50
2019-04-16T11:58:24.577Z,37.60
2019-04-16T12:01:14.065Z,37.40
2019-04-16T12:03:51.658Z,38.20
2019-04-16T12:06:40.807Z,38.60
2019-04-16T12:09:15.149Z,38.70
2019-04-16T12:11:49.533Z,40.10
2019-04-16T12:14:32.367Z,38.70
2019-04-16T12:17:00.622Z,39.00
2019-04-16T12:19:48.086Z,41.10
2019-04-16T12:22:19.176Z,42.70
2019-04-16T12:24:59.199Z,43.90
2019-04-16T12:27:35.697Z,45.20
2019-04-16T12:30:28.560Z,45.40
2019-04-16T12:33:13.967Z,45.60
2019-04-16T12:35:47.249Z,46.80
2019-04-16T12:38:18.888Z,48.90
2019-04-16T12:41:00.477Z,50.50
2019-04-16T12:43:31.521Z,50.60
2019-04-16T12:46:08.620Z,51.30
2019-04-16T12:48:48.450Z,51.90
2019-04-16T12:51:39.838Z,52.60
2019-04-16T12:54:08.503Z,52.90
2019-04-16T12:56:51.682Z,52.60
2019-04-16T12:59:23.175Z,51.70
2019-04-16T13:02:13.297Z,51.20
2019-04-16T13:04:53.284Z,50.40
2019-04-16T13:07:30.072Z,47.40
2019-04-16T13:10:13.332Z,47.20
2019-04-16T13:12:46.046Z,47.90
2019-04-16T13:15:20.058Z,48.80
2019-04-16T13:18:09.007Z,48.70
2019-04-16T13:20:42.685Z,47.00
2019-04-16T13:23:19.521Z,45.30
2019-04-16T13:26:06.580Z,44.30
2019-04-16T13:28:37.652Z,45.50
2019-04-16T13:31:07.074Z,47.00
2019-04-16T13:33:36.433Z,47.90
2019-04-16T13:36:06.598Z,48.60
2019-04-16T13:38:43.563Z,49.20
2019-04-16T13:41:12.942Z,50.00
2019-04-16T13:43:43.982Z,50.40
2019-04-16T13:46:13.357Z,50.30
2019-04-16T13:48:50.080Z,50.70
2019-04-16T13:51:21.121Z,51.10
2019-04-16T13:54:00.837Z,51.90
2019-04-16T13:56:33.428Z,52.00
2019-04-16T13:59:04.456Z,51.90
2019-04-16T14:01:39.355Z,51.80
2019-04-16T14:04:12.240Z,52.00
2019-04-16T14:06:41.708Z,51.50
2019-04-16T14:09:13.134Z,51.10
2019-04-16T14:11:42.524Z,51.40
2019-04-16T14:14:17.403Z,51.70
2019-04-16T14:16:43.769Z,51.80
2019-04-16T14:19:14.323Z,51.80
2019-04-16T14:21:43.752Z,52.00
2019-04-16T14:24:13.124Z,52.40
2019-04-16T14:26:42.609Z,52.90
2019-04-16T14:29:12.001Z,53.40
2019-04-16T14:31:55.552Z,53.40
2019-04-16T14:34:29.823Z,53.20
2019-04-16T14:37:01.537Z,52.30
2019-04-16T14:45:58.399Z,48.10
2019-04-16T14:48:21.683Z,48.90
2019-04-16T14:50:51.330Z,50.10
2019-04-16T14:53:22.450Z,50.60
2019-04-16T14:56:00.693Z,51.50
2019-04-16T14:58:42.304Z,52.90
2019-04-16T15:01:19.219Z,52.40
2019-04-16T15:03:50.272Z,49.80
2019-04-16T15:06:37.051Z,51.20
2019-04-16T15:09:20.641Z,52.20
2019-04-16T15:12:08.524Z,53.50
2019-04-16T15:14:51.499Z,53.70
2019-04-16T15:17:34.178Z,54.00
2019-04-16T15:20:14.655Z,56.30
2019-04-16T15:22:51.612Z,57.50
2019-04-16T15:25:28.077Z,59.50
2019-04-16T15:27:59.093Z,60.20
2019-04-16T15:30:30.148Z,60.40
2019-04-16T15:33:05.291Z,59.60
2019-04-16T15:35:39.904Z,59.40
2019-04-16T15:38:20.030Z,59.10
2019-04-16T15:40:51.091Z,59.40
2019-04-16T15:43:37.862Z,59.90
2019-04-16T15:46:25.064Z,60.60
2019-04-16T15:48:50.418Z,60.60
2019-04-16T15:51:20.383Z,61.10
2019-04-16T15:54:07.167Z,62.40
2019-04-16T15:56:44.191Z,63.50
2019-04-16T15:59:15.280Z,63.90
2019-04-16T16:01:48.977Z,64.00
2019-04-16T16:04:22.508Z,64.50
2019-04-16T16:06:53.233Z,65.00
2019-04-16T16:09:27.248Z,66.00
2019-04-16T16:12:01.202Z,67.60
2019-04-16T16:14:34.699Z,69.00
2019-04-16T16:17:01.691Z,72.80
2019-04-16T16:19:31.076Z,74.90
2019-04-16T16:22:00.436Z,77.90
2019-04-16T16:24:29.855Z,81.80
2019-04-16T16:26:59.219Z,85.90
2019-04-16T16:29:28.675Z,90.00
2019-04-16T16:31:58.038Z,91.10
2019-04-16T16:34:27.427Z,92.40
2019-04-16T16:36:56.802Z,93.10
2019-04-16T16:39:26.427Z,94.80
2019-04-16T16:41:55.972Z,95.50
2019-04-16T16:44:25.433Z,96.10
2019-04-16T16:47:02.392Z,97.10
2019-04-16T16:49:32.194Z,98.00
2019-04-16T16:52:19.460Z,98.70
2019-04-16T16:54:50.616Z,99.20
2019-04-16T16:57:21.659Z,99.40
2019-04-16T16:59:58.475Z,99.80
2019-04-16T17:02:32.215Z,99.90
2019-04-16T17:05:03.223Z,99.90
2019-04-16T17:07:32.637Z,99.90
2019-04-16T17:10:02.158Z,99.90
2019-04-16T17:12:31.525Z,99.90
2019-04-16T17:15:00.908Z,99.90
2019-04-16T17:17:30.352Z,99.90
2019-04-16T17:19:59.977Z,99.90
2019-04-16T17:22:29.395Z,99.90
2019-04-16T17:24:58.764Z,99.90
2019-04-16T17:27:28.397Z,99.90
2019-04-16T17:29:58.153Z,99.90
2019-04-16T17:32:27.535Z,99.90
2019-04-16T17:34:56.919Z,99.90
2019-04-16T17:37:28.714Z,99.90
2019-04-16T17:39:59.281Z,99.90
2019-04-16T17:42:36.898Z,99.90
2019-04-16T17:45:23.291Z,99.90
2019-04-16T17:48:03.133Z,99.90
2019-04-16T17:50:51.274Z,99.90
2019-04-16T17:53:33.868Z,99.90
2019-04-16T17:56:19.728Z,99.90
2019-04-16T17:59:02.906Z,99.90
2019-04-16T18:01:50.168Z,99.90
2019-04-16T18:04:21.414Z,99.90
2019-04-16T18:06:55.169Z,99.90
2019-04-16T18:09:28.964Z,99.90
2019-04-16T18:12:20.059Z,99.90
2019-04-16T18:14:58.988Z,99.90
2019-04-16T18:17:47.221Z,99.90
2019-04-16T18:20:14.508Z,99.90
2019-04-16T18:22:57.661Z,99.90
2019-04-16T18:25:55.565Z,99.90
2019-04-16T18:28:20.106Z,99.90
2019-04-16T18:30:51.653Z,99.90
2019-04-16T18:33:35.917Z,99.90
2019-04-16T18:36:07.049Z,99.90
2019-04-16T18:38:38.163Z,99.90
2019-04-16T18:41:17.845Z,99.90
2019-04-16T18:43:51.597Z,99.90
2019-04-16T18:46:22.766Z,99.90
2019-04-16T18:48:55.034Z,99.90
2019-04-16T18:51:32.873Z,99.90
2019-04-16T18:53:59.605Z,99.90
2019-04-16T18:56:29.037Z,99.90
2019-04-16T18:58:58.422Z,99.90
2019-04-16T19:01:32.373Z,99.90
2019-04-16T19:04:01.076Z,99.90
2019-04-16T19:06:30.528Z,99.90
2019-04-16T19:08:59.942Z,99.90
2019-04-16T19:11:29.524Z,99.90
2019-04-16T19:13:58.959Z,99.90
2019-04-16T19:16:28.751Z,99.90
2019-04-16T19:18:58.125Z,99.90
2019-04-16T19:21:27.714Z,99.90
2019-04-16T19:23:57.151Z,99.90
2019-04-16T19:26:30.062Z,99.90
2019-04-16T19:28:58.584Z,99.90
2019-04-16T19:31:27.969Z,99.90
2019-04-16T19:33:57.569Z,99.90
2019-04-16T19:36:27.485Z,99.90
2019-04-16T19:38:57.823Z,99.90
2019-04-16T19:41:27.298Z,99.90
2019-04-16T19:43:56.722Z,99.90
2019-04-16T19:46:26.044Z,99.90
2019-04-16T19:48:57.033Z,99.90
2019-04-16T19:51:26.774Z,99.90
2019-04-16T19:53:56.142Z,99.90
2019-04-16T19:56:25.535Z,99.90
2019-04-16T19:58:55.203Z,99.90
2019-04-16T20:01:24.680Z,99.90
2019-04-16T20:03:54.072Z,99.90
2019-04-16T20:06:26.190Z,99.90
2019-04-16T20:08:54.497Z,99.90
2019-04-16T20:11:23.915Z,99.90
2019-04-16T20:13:53.618Z,99.90
2019-04-16T20:16:23.208Z,99.90
2019-04-16T20:18:52.637Z,99.90
2019-04-16T20:21:22.041Z,99.90
2019-04-16T20:23:51.434Z,99.90
2019-04-16T20:26:21.005Z,99.90
2019-04-16T20:28:50.378Z,99.90
2019-04-16T20:31:19.894Z,99.90
2019-04-16T20:33:53.429Z,99.90
2019-04-16T20:36:23.514Z,99.90
2019-04-16T20:38:53.616Z,99.90
2019-04-16T20:41:23.123Z,99.90
2019-04-16T20:43:52.510Z,99.90
2019-04-16T20:46:21.928Z,99.90
2019-04-16T20:49:06.497Z,99.90
2019-04-16T20:51:26.602Z,99.90
2019-04-16T20:53:55.116Z,99.90
2019-04-16T20:56:24.627Z,99.90
2019-04-16T20:58:53.995Z,99.90
2019-04-16T21:01:33.970Z,99.90
2019-04-16T21:04:04.974Z,99.90
2019-04-16T21:06:28.842Z,99.90
2019-04-16T21:08:58.459Z,99.90
2019-04-16T21:11:28.235Z,99.90
2019-04-16T21:13:57.618Z,99.90
2019-04-16T21:16:33.430Z,99.90
2019-04-16T21:19:02.308Z,99.90
2019-04-16T21:21:31.627Z,99.90
2019-04-16T21:24:06.580Z,99.90
2019-04-16T21:26:32.138Z,99.90
2019-04-16T21:29:05.926Z,99.90
2019-04-16T21:31:36.939Z,99.90
2019-04-16T21:34:25.079Z,99.90
2019-04-16T21:37:11.800Z,99.90
2019-04-16T21:39:52.135Z,99.90
2019-04-16T21:42:21.647Z,99.90
2019-04-16T21:44:51.000Z,99.90
2019-04-16T21:47:23.058Z,99.90
2019-04-16T21:49:51.463Z,99.90
2019-04-16T21:52:23.196Z,99.90
2019-04-16T21:54:51.953Z,99.90
2019-04-16T21:57:21.315Z,99.90
2019-04-16T21:59:56.866Z,99.90
2019-04-16T22:02:26.222Z,99.90
2019-04-16T22:04:55.670Z,99.90
2019-04-16T22:07:25.553Z,99.90
2019-04-16T22:09:55.012Z,99.90
2019-04-16T22:12:24.416Z,99.90
2019-04-16T22:14:55.115Z,99.90
2019-04-16T22:17:24.765Z,99.90
2019-04-16T22:20:00.834Z,99.90
2019-04-16T22:22:27.521Z,99.90
2019-04-16T22:24:56.512Z,99.90
2019-04-16T22:27:26.248Z,99.90
2019-04-16T22:29:55.914Z,99.90
2019-04-16T22:32:30.954Z,99.90
2019-04-16T22:34:58.360Z,99.90
2019-04-16T22:37:27.753Z,99.90
2019-04-16T22:40:01.485Z,99.90
2019-04-16T22:42:41.208Z,99.90
2019-04-16T22:45:20.784Z,99.90
2019-04-16T22:47:51.806Z,99.90
2019-04-16T22:50:21.099Z,99.90
2019-04-16T22:52:50.489Z,99.90
2019-04-16T22:55:24.411Z,99.90
2019-04-16T22:57:51.108Z,99.90
2019-04-16T23:00:24.893Z,99.90
2019-04-16T23:02:54.256Z,99.90
2019-04-16T23:05:23.562Z,99.90
2019-04-16T23:07:52.941Z,99.90
2019-04-16T23:10:22.405Z,99.90
2019-04-16T23:12:51.925Z,99.90
2019-04-16T23:15:21.284Z,99.90
2019-04-16T23:17:50.642Z,99.90
2019-04-16T23:20:29.355Z,99.90
2019-04-16T23:22:51.118Z,99.90
2019-04-16T23:25:20.503Z,99.90
2019-04-16T23:27:49.875Z,99.90
2019-04-16T23:30:19.273Z,99.90
2019-04-16T23:32:48.733Z,99.90
2019-04-16T23:35:18.087Z,99.90
2019-04-16T23:37:47.491Z,99.90
2019-04-16T23:40:16.848Z,99.90
2019-04-16T23:42:59.832Z,99.90
2019-04-16T23:45:31.467Z,99.90
2019-04-16T23:48:05.649Z,99.90
2019-04-16T23:50:45.253Z,99.90
2019-04-16T23:53:12.082Z,99.90
2019-04-16T23:55:49.893Z,99.90
2019-04-16T23:58:21.054Z,99.90
